• Join FlightAware (Why Join?)
  • Login
  • US Flag 
08:29PM EDT


 

Airport Tracker/Info


-or-


 

Live Flight TrackerFlight Track Log ✈ N147SW ✈ 04-Jun-2014 ✈ KDAL - KPIE

Flight Track Log - Related Links

Times and Time Zones

All times are in EDT time to prevent confusion due to time zone crossing. See the N147SW flight status page for this flight to view local times or setup timezone preferences in your user account.

Time Position Orientation Groundspeed Altitude Reporting Facility
EDT Latitude Longitude Course Direction KTS MPH feet Rate Location/Type
05:30PM 32.8333 -96.8333 121° Southeast 162 186 1,400  Level Dallas / Fort Worth TRACON
05:31PM 32.8167 -96.8000 121° Southeast 210 242 3,000 2,580 Climbing Dallas / Fort Worth TRACON
05:31PM 32.7947 -96.7714 132° Southeast 213 245 4,600 2,700 Climbing Fort Worth Center
05:33PM 32.7758 -96.6853 105° East 268 308 7,200 2,640 Climbing Fort Worth Center
05:34PM 32.7728 -96.5928 92° East 277 319 10,100 2,160 Climbing Fort Worth Center
05:35PM 32.7675 -96.4839 93° East 310 357 11,700 1,500 Climbing Fort Worth Center
05:36PM 32.7619 -96.3711 93° East 340 391 13,300 1,800 Climbing Fort Worth Center
05:37PM 32.7475 -96.2483 98° East 351 404 15,500 1,980 Climbing Fort Worth Center
05:38PM 32.7292 -96.1333 101° East 352 405 17,400 1,920 Climbing Fort Worth Center
05:39PM 32.7103 -96.0050 100° East 364 419 19,500 1,800 Climbing Fort Worth Center
05:40PM 32.6894 -95.8833 101° East 374 430 21,200 1,620 Climbing Fort Worth Center
05:41PM 32.6697 -95.7583 101° East 381 438 22,900 1,620 Climbing Fort Worth Center
05:42PM 32.6567 -95.6308 97° East 389 448 24,600 1,500 Climbing Fort Worth Center
05:43PM 32.6669 -95.5014 85° East 397 457 26,100 1,440 Climbing Fort Worth Center
05:44PM 32.6753 -95.3692 86° East 404 465 27,600 1,440 Climbing Fort Worth Center
05:45PM 32.6864 -95.2247 85° East 411 473 29,100 1,200 Climbing Fort Worth Center
05:46PM 32.6894 -95.0850 88° East 425 489 30,100 1,020 Climbing Fort Worth Center
05:47PM 32.6644 -94.9422 102° East 441 507 31,300 1,440 Climbing Fort Worth Center
05:48PM 32.6353 -94.7714 101° East 441 507 33,100 1,560 Climbing Fort Worth Center
05:49PM 32.6122 -94.6267 101° East 444 511 34,600 1,500 Climbing Fort Worth Center
05:50PM 32.5725 -94.4936 109° East 440 506 36,300 1,740 Climbing Fort Worth Center
05:51PM 32.5050 -94.3808 125° Southeast 424 488 38,300 1,740 Climbing Fort Worth Center
05:52PM 32.4411 -94.2725 125° Southeast 407 468 40,000 1,200 Climbing Fort Worth Center
05:53PM 32.3628 -94.1417 125° Southeast 409 471 40,800 480 Climbing Fort Worth Center
05:54PM 32.2950 -94.0283 125° Southeast 422 486 41,000 60 Climbing Fort Worth Center
05:55PM 32.2228 -93.9142 127° Southeast 432 497 41,000  Level Fort Worth Center
05:56PM 32.1539 -93.7875 123° Southeast 454 522 41,000  Level Fort Worth Center
05:57PM 32.0714 -93.6533 126° Southeast 468 539 41,000  Level Fort Worth Center
05:58PM 31.9953 -93.5278 126° Southeast 468 539 41,000  Level Fort Worth Center
05:59PM 31.9194 -93.4000 125° Southeast 471 542 41,000  Level Fort Worth Center
06:00PM 31.8581 -93.3017 126° Southeast 471 542 41,000  Level Houston Center
06:01PM 31.7794 -93.1711 125° Southeast 471 542 41,000  Level Houston Center
06:02PM 31.7017 -93.0458 126° Southeast 472 543 41,000  Level Houston Center
06:03PM 31.6103 -92.8961 126° Southeast 472 543 41,000  Level Houston Center
06:04PM 31.5325 -92.7700 126° Southeast 473 544 41,000  Level Houston Center
06:05PM 31.4547 -92.6447 126° Southeast 474 545 41,000  Level Houston Center
06:06PM 31.3722 -92.5150 127° Southeast 488 562 41,000  Level Houston Center
06:07PM 31.2944 -92.3914 126° Southeast 480 552 41,000  Level Houston Center
06:09PM 31.2167 -92.2647 126° Southeast 479 551 41,000  Level Houston Center
06:10PM 31.1219 -92.1147 126° Southeast 479 551 41,000  Level Houston Center
06:11PM 31.0414 -91.9864 126° Southeast 477 549 41,000  Level Houston Center
06:12PM 30.9633 -91.8625 126° Southeast 476 548 41,000  Level Houston Center
06:13PM 30.8844 -91.7389 127° Southeast 476 548 41,000  Level Houston Center
06:14PM 30.8064 -91.6156 126° Southeast 476 548 41,000  Level Houston Center
06:15PM 30.7278 -91.4933 127° Southeast 473 544 41,000  Level Houston Center
06:16PM 30.6389 -91.3525 126° Southeast 469 540 41,000  Level Houston Center
06:17PM 30.5611 -91.2317 127° Southeast 468 539 41,000  Level Houston Center
06:18PM 30.4836 -91.1111 127° Southeast 468 539 41,000  Level Houston Center
06:19PM 30.4058 -90.9897 127° Southeast 468 539 41,000  Level Houston Center
06:20PM 30.3264 -90.8681 127° Southeast 470 541 41,000  Level Houston Center
06:21PM 30.2331 -90.7231 127° Southeast 471 542 41,000  Level Houston Center
06:22PM 30.1536 -90.6028 127° Southeast 472 543 41,000  Level Houston Center
06:23PM 30.0739 -90.4811 127° Southeast 474 545 41,000  Level Houston Center
06:24PM 29.9942 -90.3614 128° Southeast 474 545 41,000  Level Houston Center
06:25PM 29.9147 -90.2392 127° Southeast 476 548 41,000  Level Houston Center
06:26PM 29.8189 -90.0947 127° Southeast 476 548 41,000  Level Houston Center
06:27PM 29.7383 -89.9731 127° Southeast 478 550 41,000  Level Houston Center
06:28PM 29.6578 -89.8519 127° Southeast 478 550 41,000  Level Houston Center
06:29PM 29.5814 -89.7275 125° Southeast 479 551 41,000  Level Houston Center
06:30PM 29.5158 -89.5600 114° Southeast 479 551 41,000  Level Houston Center
06:31PM 29.4592 -89.4211 115° Southeast 480 552 41,000  Level Houston Center
06:32PM 29.4033 -89.2811 115° Southeast 481 554 41,000  Level Houston Center
06:33PM 29.3469 -89.1431 115° Southeast 481 554 41,000  Level Houston Center
06:34PM 29.2897 -89.0047 115° Southeast 481 554 41,000  Level Houston Center
06:35PM 29.2325 -88.8667 115° Southeast 481 554 41,000  Level Houston Center
06:36PM 29.1644 -88.7008 115° Southeast 482 555 41,000  Level Houston Center
06:38PM 29.1064 -88.5633 116° Southeast 481 554 41,000  Level Houston Center
06:39PM 29.0503 -88.4250 115° Southeast 481 554 41,000  Level Houston Center
06:40PM 28.9914 -88.2881 116° Southeast 481 554 41,000  Level Houston Center
06:41PM 28.9344 -88.1497 115° Southeast 481 554 41,000  Level Houston Center
06:42PM 28.8653 -87.9842 115° Southeast 480 552 41,000  Level Houston Center
06:43PM 28.8075 -87.8478 116° Southeast 479 551 41,000  Level Houston Center
06:44PM 28.7500 -87.7117 116° Southeast 479 551 41,000  Level Houston Center
06:45PM 28.6919 -87.5767 116° Southeast 478 550 41,000  Level Houston Center
06:46PM 28.6342 -87.4425 116° Southeast 476 548 41,000  Level Houston Center
06:47PM 28.5758 -87.3050 116° Southeast 478 550 41,000  Level Houston Center
06:48PM 28.5053 -87.1433 116° Southeast 478 550 41,000  Level Houston Center
06:49PM 28.4469 -87.0067 116° Southeast 478 550 41,000  Level Houston Center
06:50PM 28.3986 -86.8967 117° Southeast 480 552 41,000  Level Jacksonville Center
06:51PM 28.3381 -86.7622 117° Southeast 485 558 41,000  Level Jacksonville Center
06:52PM 28.2919 -86.6261 111° Southeast 471 542 41,000  Level Jacksonville Center
06:53PM 28.2481 -86.4786 109° East 478 550 41,000  Level Jacksonville Center
06:54PM 28.2061 -86.3358 108° East 478 550 41,000 -780 Level Jacksonville Center
06:55PM 28.1639 -86.1956 109° East 479 551 39,500 -1,740 Descending Jacksonville Center
06:56PM 28.1217 -86.0458 108° East 485 558 37,600 -1,920 Descending Jacksonville Center
06:57PM 28.0753 -85.8917 109° East 495 570 35,700 -1,320 Descending Jacksonville Center
06:58PM 28.0306 -85.7492 110° East 495 570 35,000 -360 Descending Jacksonville Center
06:59PM 27.9900 -85.6069 108° East 478 550 35,000  Level Jacksonville Center
07:01PM 27.9072 -85.3314 109° East 481 554 35,000  Level Miami Center
07:02PM 27.8872 -85.1806 98° East 490 564 35,000  Level Miami Center
07:03PM 27.8919 -85.0281 88° East 490 564 35,000  Level Miami Center
07:04PM 27.8942 -84.8517 89° East 490 564 35,000 -360 Level Miami Center
07:05PM 27.9147 -84.7008 81° East 494 568 34,300 -1,020 Descending Miami Center
07:06PM 27.9669 -84.5444 69° East 503 579 33,000 -1,200 Descending Miami Center
07:07PM 28.0142 -84.4081 69° East 495 570 31,900 -1,800 Descending Miami Center
07:08PM 28.0569 -84.2583 72° East 502 578 29,400 -2,640 Descending Miami Center
07:09PM 28.0400 -84.1011 97° East 504 580 26,600 -2,760 Descending Miami Center
07:10PM 28.0194 -83.9442 98° East 504 580 23,800 -2,700 Descending Miami Center
07:11PM 27.9994 -83.7919 98° East 493 567 21,100 -2,880 Descending Miami Center
07:12PM 27.9769 -83.6183 98° East 467 537 18,000 -2,700 Descending Miami Center
07:13PM 27.9564 -83.4808 100° East 449 517 15,600 -2,400 Descending Miami Center
07:14PM 27.9411 -83.3483 97° East 429 494 13,200 -2,340 Descending Miami Center
07:15PM 27.9228 -83.2189 99° East 420 483 10,900 -1,620 Descending Miami Center
07:16PM 27.9044 -83.0944 99° East 412 474 9,900 -1,200 Descending Miami Center
07:17PM 27.8922 -82.9853 97° East 350 403 8,500 -1,920 Descending Miami Center
07:18PM 27.8794 -82.8897 99° East 322 371 6,000 -2,280 Descending Miami Center
07:19PM 27.8672 -82.7983 99° East 307 353 3,800 -1,800 Descending Miami Center
07:20PM 27.8344 -82.7133 114° Southeast 266 306 2,400 -1,320 Descending Miami Center
07:21PM 27.8603 -82.6758 52° Northeast 219 252 1,100 -1,020 Descending Miami Center
07:22PM 27.8933 -82.6872 343° North 179 206 400 -720 Descending Miami Center
07:24PM 27.9000 -82.6833 341° North  Level FlightAware Approximate
07:31PM 27.9100 -82.6875 341° North  Level Estimated